Time;durP1;ratioP1;P1;durP2;ratioP2;P2;SDS_P1;SDS_P2;PMS_P1;PMS_P2;Temp;Humidity;BMP_temperature;BMP_pressure;BME280_temperature;BME280_humidity;BME280_pressure;Samples;Min_cycle;Max_cycle;Signal;HPM_P1;HPM_P2
2023/12/30 00:02:16;;;;;;;;;;;2.70;99.90;;;;;;5055054;28;20497;-77
2023/12/30 00:04:42;;;;;;;34.42;17.70;;;2.60;99.90;;;;;;5036940;28;19984;-77
2023/12/30 00:07:07;;;;;;;;;;;2.60;99.90;;;;;;5055469;28;20503;-77
2023/12/30 00:09:33;;;;;;;55.35;26.38;;;2.60;99.90;;;;;;5036916;28;19905;-76
2023/12/30 00:11:58;;;;;;;;;;;2.70;99.90;;;;;;5036858;28;20090;-77
2023/12/30 00:14:24;;;;;;;58.92;29.33;;;2.70;99.90;;;;;;5036160;28;19909;-76
2023/12/30 00:16:49;;;;;;;;;;;2.70;99.90;;;;;;5037337;28;20678;-76
2023/12/30 00:19:15;;;;;;;31.08;17.27;;;2.60;99.90;;;;;;5037948;28;19905;-78
2023/12/30 00:21:41;;;;;;;;;;;2.60;99.90;;;;;;5054088;28;20029;-77
2023/12/30 00:24:06;;;;;;;28.98;17.80;;;2.60;99.90;;;;;;5052178;28;20365;-76
2023/12/30 00:26:32;;;;;;;;;;;2.50;99.90;;;;;;5034504;28;20021;-76
2023/12/30 00:28:58;;;;;;;30.92;16.98;;;2.40;99.90;;;;;;5034454;28;19911;-76
2023/12/30 00:31:26;;;;;;;31.08;17.98;;;2.40;99.90;;;;;;5053170;28;20057;-76
2023/12/30 00:33:54;;;;;;;28.60;17.00;;;2.20;99.90;;;;;;5033585;28;20045;-76
2023/12/30 00:36:19;;;;;;;34.80;19.80;;;2.10;99.90;;;;;;5037361;28;20025;-77
2023/12/30 00:38:45;;;;;;;;;;;2.10;99.90;;;;;;5038225;28;20045;-77
2023/12/30 00:41:13;;;;;;;45.03;23.52;;;2.10;99.90;;;;;;5037578;28;19909;-77
2023/12/30 00:43:40;;;;;;;41.08;23.33;;;2.00;99.90;;;;;;5037910;28;20107;-77
2023/12/30 00:46:06;;;;;;;46.83;25.25;;;2.00;99.90;;;;;;5036849;28;20171;-78
2023/12/30 00:48:32;;;;;;;41.05;23.23;;;2.00;99.90;;;;;;5036803;28;20025;-77
2023/12/30 00:50:59;;;;;;;;;;;2.10;99.90;;;;;;5037212;28;20371;-77
2023/12/30 00:53:25;;;;;;;57.17;29.10;;;2.10;99.90;;;;;;5036944;28;19916;-77
2023/12/30 00:55:50;;;;;;;;;;;2.10;99.90;;;;;;5036924;28;20056;-78
2023/12/30 00:58:16;;;;;;;53.50;27.10;;;2.10;99.90;;;;;;5036127;28;19960;-77
2023/12/30 01:00:41;;;;;;;;;;;2.10;99.90;;;;;;5037497;28;20116;-77
2023/12/30 01:03:07;;;;;;;56.40;30.73;;;2.00;99.90;;;;;;5038015;28;19905;-77
2023/12/30 01:05:32;;;;;;;;;;;2.10;99.90;;;;;;5038536;28;20025;-77
2023/12/30 01:07:58;;;;;;;43.75;24.42;;;2.10;99.90;;;;;;5036265;28;19905;-76
2023/12/30 01:10:24;;;;;;;;;;;2.10;99.90;;;;;;5037388;28;20401;-76
2023/12/30 01:12:49;;;;;;;31.67;16.30;;;2.10;99.90;;;;;;5036068;28;19905;-77
2023/12/30 01:15:15;;;;;;;;;;;2.10;99.90;;;;;;5035904;28;20029;-76
2023/12/30 01:17:40;;;;;;;28.50;14.07;;;2.20;99.90;;;;;;5035615;28;20266;-76
2023/12/30 01:20:06;;;;;;;;;;;2.20;99.90;;;;;;5037221;28;20052;-76
2023/12/30 01:22:32;;;;;;;27.65;15.18;;;2.20;99.90;;;;;;5035548;28;19905;-77
2023/12/30 01:24:57;;;;;;;;;;;2.10;99.90;;;;;;5037047;28;20040;-77
2023/12/30 01:27:23;;;;;;;23.48;13.40;;;2.10;99.90;;;;;;5037062;28;19927;-77
2023/12/30 01:29:49;;;;;;;;;;;2.20;99.90;;;;;;5036321;28;20079;-76
2023/12/30 01:32:14;;;;;;;24.25;12.80;;;2.10;99.90;;;;;;5035375;28;19994;-77
2023/12/30 01:34:40;;;;;;;;;;;2.10;99.90;;;;;;5036341;28;20441;-76
2023/12/30 01:37:05;;;;;;;19.35;11.75;;;2.00;99.90;;;;;;5036040;28;19913;-77
2023/12/30 01:39:31;;;;;;;;;;;2.00;99.90;;;;;;5038007;28;20045;-76
2023/12/30 01:41:57;;;;;;;24.00;11.70;;;2.10;99.90;;;;;;5037223;28;20362;-77
2023/12/30 01:44:22;;;;;;;;;;;2.10;99.90;;;;;;5035677;28;20037;-77
2023/12/30 01:46:48;;;;;;;15.65;8.98;;;2.00;99.90;;;;;;5037444;28;19912;-77
2023/12/30 01:49:14;;;;;;;;;;;2.10;99.90;;;;;;5036201;28;20398;-76
2023/12/30 01:51:39;;;;;;;16.48;9.80;;;2.10;99.90;;;;;;5036375;28;19928;-76
2023/12/30 01:54:05;;;;;;;;;;;2.10;99.90;;;;;;5037229;28;20466;-76
2023/12/30 01:56:31;;;;;;;14.65;8.60;;;2.20;99.90;;;;;;5036832;28;19909;-76
2023/12/30 01:58:59;;;;;;;21.27;9.70;;;2.20;99.90;;;;;;5034957;28;20486;-76
2023/12/30 02:01:44;;;;;;;14.27;9.30;;;2.20;99.90;;;;;;5034458;28;20577;-76
2023/12/30 02:04:11;;;;;;;15.05;8.70;;;2.10;99.90;;;;;;5036216;28;20108;-76
2023/12/30 02:06:36;;;;;;;18.70;8.93;;;2.10;99.90;;;;;;5033446;28;20029;-76
2023/12/30 02:09:02;;;;;;;;;;;2.10;99.90;;;;;;5036501;28;20470;-78
2023/12/30 02:11:28;;;;;;;36.15;13.90;;;2.10;99.90;;;;;;5035838;28;19912;-76
2023/12/30 02:13:54;;;;;;;38.03;16.17;;;2.10;99.90;;;;;;5035138;28;20025;-76
2023/12/30 02:16:19;;;;;;;;;;;2.10;99.90;;;;;;5035388;28;20033;-76
2023/12/30 02:18:45;;;;;;;57.20;21.02;;;2.20;99.90;;;;;;5035632;28;19951;-76
2023/12/30 02:21:11;;;;;;;;;;;2.10;99.90;;;;;;5036871;28;20040;-77
2023/12/30 02:23:36;;;;;;;39.83;16.90;;;2.10;99.90;;;;;;5038615;28;19912;-77
2023/12/30 02:26:02;;;;;;;;;;;2.20;99.90;;;;;;5039922;28;20033;-78
2023/12/30 02:28:27;;;;;;;36.05;17.40;;;2.10;99.90;;;;;;5037624;28;19905;-76
2023/12/30 02:30:53;;;;;;;;;;;2.20;99.90;;;;;;5035217;28;20456;-76
2023/12/30 02:33:18;;;;;;;28.67;15.82;;;2.20;99.90;;;;;;5032697;28;19963;-76
2023/12/30 02:35:44;;;;;;;;;;;2.10;99.90;;;;;;5032752;28;20497;-76
2023/12/30 02:38:10;;;;;;;30.35;16.20;;;2.20;99.90;;;;;;5031997;28;19913;-75
2023/12/30 02:40:35;;;;;;;;;;;2.10;99.90;;;;;;5032406;28;20029;-76
2023/12/30 02:43:01;;;;;;;28.88;14.70;;;2.10;99.90;;;;;;5032405;28;20004;-75
2023/12/30 02:45:26;;;;;;;;;;;2.10;99.90;;;;;;5032053;28;20029;-76
2023/12/30 02:47:52;;;;;;;34.22;17.10;;;2.10;99.90;;;;;;5032059;28;20000;-75
2023/12/30 02:50:18;;;;;;;;;;;2.10;99.90;;;;;;5032054;28;20040;-76
2023/12/30 02:52:44;;;;;;;33.87;17.07;;;2.10;99.90;;;;;;5032644;28;19906;-76
2023/12/30 02:55:09;;;;;;;;;;;2.10;99.90;;;;;;5033047;28;20268;-76
2023/12/30 02:57:35;;;;;;;36.92;18.67;;;2.10;99.90;;;;;;5033827;28;20297;-76
2023/12/30 03:00:01;;;;;;;;;;;2.10;99.90;;;;;;5049040;28;20096;-76
2023/12/30 03:02:26;;;;;;;36.80;19.02;;;2.20;99.90;;;;;;5056880;28;19912;-76
2023/12/30 03:04:52;;;;;;;;;;;2.30;99.90;;;;;;5072701;28;20507;-76
2023/12/30 03:07:18;;;;;;;29.30;16.40;;;2.30;99.90;;;;;;5071906;28;19908;-76
2023/12/30 03:09:43;;;;;;;;;;;2.30;99.90;;;;;;5073638;28;20488;-77
2023/12/30 03:12:09;;;;;;;21.00;11.63;;;2.40;99.90;;;;;;5073433;28;20333;-76
2023/12/30 03:14:35;;;;;;;;;;;2.30;99.90;;;;;;5057449;28;20477;-76
2023/12/30 03:17:04;;;;;;;57.35;31.73;;;2.20;99.90;;;;;;5051750;28;19958;-75
2023/12/30 03:19:30;;;;;;;64.95;37.00;;;2.20;99.90;;;;;;5050839;28;20029;-76
2023/12/30 03:21:56;;;;;;;;;;;2.20;99.90;;;;;;5051556;28;20087;-75
2023/12/30 03:24:22;;;;;;;23.23;11.88;;;2.30;99.90;;;;;;5050123;28;19955;-75
2023/12/30 03:26:47;;;;;;;;;;;2.30;99.90;;;;;;5052928;28;20021;-75
2023/12/30 03:29:13;;;;;;;14.07;7.32;;;2.30;99.90;;;;;;5049245;28;20423;-75
2023/12/30 03:31:39;;;;;;;;;;;2.40;99.90;;;;;;5049338;28;20040;-76
2023/12/30 03:34:05;;;;;;;12.83;8.07;;;2.30;99.90;;;;;;5050391;28;19921;-75
2023/12/30 03:36:31;;;;;;;;;;;2.30;99.90;;;;;;5052325;28;20405;-75
2023/12/30 03:38:56;;;;;;;16.85;9.68;;;2.20;99.90;;;;;;5052082;28;20012;-77
2023/12/30 03:41:22;;;;;;;;;;;2.20;99.90;;;;;;5052069;28;20021;-76
2023/12/30 03:43:49;;;;;;;33.72;15.57;;;2.30;99.90;;;;;;5050958;28;19958;-76
2023/12/30 03:46:14;;;;;;;31.67;16.08;;;2.10;99.90;;;;;;5051154;28;20557;-76
2023/12/30 03:48:40;;;;;;;;;;;2.10;99.90;;;;;;5052986;28;20117;-76
2023/12/30 03:51:06;;;;;;;28.63;17.40;;;2.10;99.90;;;;;;5052754;28;20369;-76
2023/12/30 03:53:31;;;;;;;;;;;2.00;99.90;;;;;;5053366;28;20059;-76
2023/12/30 03:55:57;;;;;;;27.20;15.35;;;2.10;99.90;;;;;;5052035;28;19999;-76
2023/12/30 03:58:23;;;;;;;;;;;2.00;99.90;;;;;;5052367;28;20404;-77
2023/12/30 04:00:48;;;;;;;22.05;12.45;;;2.00;99.90;;;;;;5052176;28;19924;-76
2023/12/30 04:03:14;;;;;;;;;;;1.90;99.90;;;;;;5052122;28;20029;-76
2023/12/30 04:05:40;;;;;;;21.70;12.48;;;1.90;99.90;;;;;;5051719;28;19912;-77
2023/12/30 04:08:06;;;;;;;21.60;11.38;;;1.90;99.90;;;;;;5052017;28;20102;-76
2023/12/30 04:10:32;;;;;;;21.90;11.85;;;1.90;99.90;;;;;;5051763;28;20036;-76
2023/12/30 04:12:57;;;;;;;;;;;1.90;99.90;;;;;;5052623;28;20021;-76
2023/12/30 04:15:23;;;;;;;;;;;1.80;99.90;;;;;;5053182;28;20000;-76
2023/12/30 04:17:48;;;;;;;;;;;1.80;99.90;;;;;;5053239;28;19924;-77
2023/12/30 04:20:14;;;;;;;;;;;1.80;99.90;;;;;;5053324;28;19909;-76
2023/12/30 04:22:39;;;;;;;;;;;1.80;99.90;;;;;;5052077;28;19916;-76
2023/12/30 04:25:05;;;;;;;;;;;1.70;99.90;;;;;;5052614;28;19912;-75
2023/12/30 04:27:31;;;;;;;;;;;1.60;99.90;;;;;;5051300;28;19910;-76
2023/12/30 04:29:57;;;;;;;;;;;1.40;99.90;;;;;;5052626;28;19905;-76
2023/12/30 04:32:24;;;;;;;;;;;1.40;99.90;;;;;;5053812;28;20372;-76
2023/12/30 04:34:50;;;;;;;;;;;1.30;99.90;;;;;;5072324;28;20070;-76
2023/12/30 04:37:15;;;;;;;;;;;1.30;99.90;;;;;;5056312;28;20007;-76
2023/12/30 04:39:41;;;;;;;;;;;1.20;99.90;;;;;;5054433;28;19995;-76
2023/12/30 04:42:06;;;;;;;;;;;1.20;99.90;;;;;;5054156;28;19908;-76
2023/12/30 04:44:32;;;;;;;;;;;1.20;99.90;;;;;;5054338;28;19939;-75
2023/12/30 04:46:57;;;;;;;;;;;1.20;99.90;;;;;;5072105;28;19950;-76
2023/12/30 04:49:23;;;;;;;;;;;1.20;99.90;;;;;;5054534;28;19957;-76
2023/12/30 04:51:48;;;;;;;;;;;1.20;99.90;;;;;;5054510;28;19959;-75
2023/12/30 04:54:14;;;;;;;;;;;1.20;99.90;;;;;;5054858;28;20007;-76
2023/12/30 04:56:40;;;;;;;;;;;1.20;99.90;;;;;;5072896;28;19935;-77
2023/12/30 04:59:05;;;;;;;;;;;1.20;99.90;;;;;;5054814;28;19947;-76
2023/12/30 05:01:31;;;;;;;;;;;1.20;99.90;;;;;;5054845;28;19904;-76
2023/12/30 05:03:56;;;;;;;;;;;1.20;99.90;;;;;;5054629;28;19915;-77
2023/12/30 05:06:23;;;;;;;;;;;1.20;99.90;;;;;;5072208;28;20292;-76
2023/12/30 05:08:49;;;;;;;;;;;1.20;99.90;;;;;;5054320;28;19930;-76
2023/12/30 05:11:14;;;;;;;;;;;1.10;99.90;;;;;;5054087;28;20015;-75
2023/12/30 05:13:40;;;;;;;;;;;1.10;99.90;;;;;;5054121;28;20364;-76
2023/12/30 05:16:06;;;;;;;;;;;1.10;99.90;;;;;;5072133;28;20607;-76
2023/12/30 05:18:31;;;;;;;;;;;1.10;99.90;;;;;;5071897;28;19912;-76
2023/12/30 05:20:57;;;;;;;;;;;1.10;99.90;;;;;;5057911;28;19997;-75
2023/12/30 05:23:22;;;;;;;;;;;1.10;99.90;;;;;;5058409;28;19905;-76
2023/12/30 05:25:48;;;;;;;;;;;1.10;99.90;;;;;;5058246;28;19908;-76
2023/12/30 05:28:13;;;;;;;;;;;1.10;99.90;;;;;;5076687;28;19904;-76
2023/12/30 05:30:40;;;;;;;;;;;1.00;99.90;;;;;;5076872;28;19944;-75
2023/12/30 05:33:06;;;;;;;;;;;1.00;99.90;;;;;;5075779;28;19934;-76
2023/12/30 05:35:32;;;;;;;;;;;0.90;99.90;;;;;;5076735;28;19904;-75
2023/12/30 05:37:58;;;;;;;;;;;0.90;99.90;;;;;;5058585;28;20003;-76
2023/12/30 05:40:23;;;;;;;;;;;0.70;99.90;;;;;;5059183;28;19915;-77
2023/12/30 05:42:49;;;;;;;;;;;0.50;99.90;;;;;;5077855;28;19904;-77
2023/12/30 05:45:14;;;;;;;;;;;0.50;99.90;;;;;;5077525;28;19912;-76
2023/12/30 05:47:40;;;;;;;;;;;0.40;99.90;;;;;;5057586;28;19904;-76
2023/12/30 05:50:06;;;;;;;;;;;0.40;99.90;;;;;;5057138;28;19909;-76
2023/12/30 05:52:31;;;;;;;;;;;0.40;99.90;;;;;;5057232;28;19904;-77
2023/12/30 05:54:57;;;;;;;;;;;0.60;99.90;;;;;;5057513;28;20407;-77
2023/12/30 05:57:22;;;;;;;;;;;0.70;99.90;;;;;;5076358;28;20368;-76
2023/12/30 05:59:48;;;;;;;;;;;0.70;99.90;;;;;;5057878;28;19909;-76
2023/12/30 06:02:13;;;;;;;;;;;0.80;99.90;;;;;;5057429;28;19904;-76
2023/12/30 06:04:40;;;;;;;;;;;1.00;99.90;;;;;;5058131;28;19915;-76
2023/12/30 06:07:06;;;;;;;;;;;0.90;99.90;;;;;;5057677;28;19973;-76
2023/12/30 06:09:32;;;;;;;;;;;1.00;99.90;;;;;;5057213;28;20249;-76
2023/12/30 06:11:58;;;;;;;;;;;1.20;99.90;;;;;;5074549;28;20269;-76
2023/12/30 06:14:23;;;;;;;;;;;1.30;99.90;;;;;;5057125;28;19911;-76
2023/12/30 06:16:49;;;;;;;;;;;1.20;99.90;;;;;;5058041;28;19952;-75
2023/12/30 06:19:16;;;;;;;;;;;1.20;99.90;;;;;;5054967;28;19912;-76
2023/12/30 06:21:44;;;;;;;;;;;1.20;99.90;;;;;;5057510;28;19904;-77
2023/12/30 06:24:10;;;;;;;;;;;1.10;99.90;;;;;;5057339;28;19909;-76
2023/12/30 06:26:36;;;;;;;;;;;1.10;99.90;;;;;;5057993;28;19904;-76
2023/12/30 06:29:02;;;;;;;;;;;1.20;99.90;;;;;;5057912;28;19959;-76
2023/12/30 06:31:27;;;;;;;;;;;1.40;99.90;;;;;;5056366;28;19904;-76
2023/12/30 06:33:52;;;;;;;;;;;1.60;99.90;;;;;;5073988;28;19920;-76
2023/12/30 06:36:22;;;;;;;;;;;2.00;99.90;;;;;;5056547;28;20379;-76
2023/12/30 06:38:48;;;;;;;;;;;2.40;99.90;;;;;;5058044;28;19916;-77
2023/12/30 06:41:14;;;;;;;;;;;2.60;99.90;;;;;;5077543;28;19908;-77
2023/12/30 06:43:40;;;;;;;;;;;2.50;99.90;;;;;;5075017;28;19904;-76
2023/12/30 06:46:05;;;;;;;;;;;2.70;99.90;;;;;;5056092;28;20000;-76
2023/12/30 06:48:31;;;;;;;;;;;2.70;99.90;;;;;;5056275;28;20003;-75
2023/12/30 06:50:57;;;;;;;;;;;2.60;99.90;;;;;;5055706;28;20365;-77
2023/12/30 06:53:22;;;;;;;;;;;2.70;99.90;;;;;;5055368;28;20386;-77
2023/12/30 06:55:48;;;;;;;;;;;2.60;99.90;;;;;;5055072;28;19904;-76
2023/12/30 06:58:13;;;;;;;;;;;2.60;99.90;;;;;;5073477;28;19969;-76
2023/12/30 07:00:39;;;;;;;;;;;2.60;99.90;;;;;;5073521;28;19904;-76
2023/12/30 07:03:05;;;;;;;;;;;2.50;99.90;;;;;;5073894;28;19912;-77
2023/12/30 07:05:35;;;;;;;;;;;2.60;99.90;;;;;;5055389;28;20020;-77
2023/12/30 07:08:01;;;;;;;;;;;2.50;99.90;;;;;;5056006;28;19927;-76
2023/12/30 07:10:26;;;;;;;;;;;2.60;99.90;;;;;;5073931;28;20368;-76
2023/12/30 07:12:52;;;;;;;;;;;2.60;99.90;;;;;;5073599;28;20436;-75
2023/12/30 07:15:18;;;;;;;;;;;2.60;99.90;;;;;;5056114;28;19904;-76
2023/12/30 07:17:44;;;;;;;;;;;2.70;99.90;;;;;;5072854;28;19944;-75
2023/12/30 07:20:10;;;;;;;;;;;2.60;99.90;;;;;;5051239;28;19973;-76
2023/12/30 07:22:35;;;;;;;;;;;2.80;99.90;;;;;;5073608;28;20327;-75
2023/12/30 07:25:01;;;;;;;;;;;2.90;99.90;;;;;;5073875;28;20649;-77
2023/12/30 07:27:26;;;;;;;;;;;3.20;99.90;;;;;;5055853;28;19961;-76
2023/12/30 07:29:53;;;;;;;;;;;3.40;99.90;;;;;;5074515;28;20372;-76
2023/12/30 07:32:18;;;;;;;;;;;3.70;99.90;;;;;;5056402;28;20376;-76
2023/12/30 07:34:43;;;;;;;;;;;3.70;99.90;;;;;;5055615;28;19951;-75
2023/12/30 07:37:09;;;;;;;;;;;3.70;99.90;;;;;;5056692;28;19937;-76
2023/12/30 07:39:34;;;;;;;;;;;3.80;99.90;;;;;;5056767;28;20380;-76
2023/12/30 07:42:00;;;;;;;;;;;3.80;99.90;;;;;;5056238;28;19905;-76
2023/12/30 07:44:27;;;;;;;;;;;4.00;99.90;;;;;;5056852;28;19905;-76
2023/12/30 07:46:52;;;;;;;;;;;4.00;99.90;;;;;;5057565;28;19904;-75
2023/12/30 07:49:18;;;;;;;;;;;4.20;99.90;;;;;;5074827;28;20531;-76
2023/12/30 07:51:44;;;;;;;;;;;4.60;99.90;;;;;;5055448;28;19904;-76
2023/12/30 07:54:10;;;;;;;;;;;4.70;99.90;;;;;;5056814;28;19904;-76
2023/12/30 07:56:35;;;;;;;;;;;5.00;99.90;;;;;;5074250;28;19970;-76
2023/12/30 07:59:01;;;;;;;;;;;5.10;99.90;;;;;;5056526;28;20370;-76
2023/12/30 08:01:26;;;;;;;;;;;5.10;99.90;;;;;;5075079;28;19904;-75
2023/12/30 08:03:52;;;;;;;;;;;5.10;99.90;;;;;;5075217;28;19904;-76
2023/12/30 08:06:17;;;;;;;;;;;5.10;99.90;;;;;;5073984;28;19943;-76
2023/12/30 08:08:43;;;;;;;;;;;5.30;99.90;;;;;;5057894;28;19911;-76
2023/12/30 08:11:08;;;;;;;;;;;5.50;99.90;;;;;;5057975;28;19904;-76
2023/12/30 08:13:34;;;;;;;;;;;5.70;99.90;;;;;;5056666;28;19987;-75
2023/12/30 08:15:59;;;;;;;;;;;5.90;99.90;;;;;;5056262;28;20368;-76
2023/12/30 08:18:25;;;;;;;;;;;6.20;99.90;;;;;;5056160;28;19912;-76
2023/12/30 08:20:52;;;;;;;;;;;6.50;99.90;;;;;;5052262;28;19904;-76
2023/12/30 08:23:18;;;;;;;;;;;6.90;99.90;;;;;;5054927;28;19911;-75
2023/12/30 08:25:43;;;;;;;;;;;7.10;99.90;;;;;;5054549;28;19904;-75
2023/12/30 08:28:09;;;;;;;;;;;7.40;99.90;;;;;;5055789;28;20423;-76
2023/12/30 08:30:34;;;;;;;;;;;7.60;99.90;;;;;;5055957;28;19908;-76
2023/12/30 08:33:06;;;;;;;;;;;7.90;99.90;;;;;;5074164;28;19916;-76
2023/12/30 08:35:32;;;;;;;;;;;8.10;99.90;;;;;;5073371;28;19991;-76
2023/12/30 08:37:58;;;;;;;;;;;8.20;99.90;;;;;;5055009;28;20348;-76
2023/12/30 08:40:23;;;;;;;;;;;8.10;99.90;;;;;;5055101;28;19904;-75
2023/12/30 08:42:48;;;;;;;;;;;8.00;99.90;;;;;;5056457;28;19912;-76
2023/12/30 08:45:18;;;;;;;;;;;7.80;99.90;;;;;;5056665;28;19909;-75
2023/12/30 08:47:45;;;;;;;;;;;7.70;99.90;;;;;;5073613;28;19912;-76
2023/12/30 08:50:10;;;;;;;;;;;7.60;99.90;;;;;;5072425;28;19908;-77
2023/12/30 08:52:36;;;;;;;;;;;7.30;99.90;;;;;;5074088;28;19904;-77
2023/12/30 08:55:01;;;;;;;;;;;7.30;99.90;;;;;;5079269;28;19954;-77
2023/12/30 08:57:27;;;;;;;;;;;7.20;99.90;;;;;;5062775;28;19912;-77
2023/12/30 08:59:52;;;;;;;;;;;7.10;99.90;;;;;;5077589;28;20276;-77
2023/12/30 09:02:18;;;;;;;;;;;7.00;99.90;;;;;;5076643;28;19904;-76
2023/12/30 09:04:43;;;;;;;;;;;6.90;99.90;;;;;;5077206;28;20303;-76
2023/12/30 09:07:09;;;;;;;;;;;6.90;99.90;;;;;;5076735;28;19905;-77
2023/12/30 09:09:34;;;;;;;;;;;6.90;99.90;;;;;;5076125;28;19965;-75
2023/12/30 09:12:00;;;;;;;;;;;6.90;99.90;;;;;;5076264;28;19909;-76
2023/12/30 09:14:25;;;;;;;;;;;6.90;99.90;;;;;;5076288;28;20588;-76
2023/12/30 09:16:51;;;;;;;;;;;6.90;99.90;;;;;;5075958;28;19912;-76
2023/12/30 09:19:16;;;;;;;;;;;6.90;99.90;;;;;;5075578;28;19916;-75
2023/12/30 09:21:42;;;;;;;;;;;6.80;99.90;;;;;;5075819;28;19904;-76
2023/12/30 09:24:07;;;;;;;;;;;6.80;99.90;;;;;;5057602;28;20300;-76
2023/12/30 09:26:33;;;;;;;;;;;6.70;99.90;;;;;;5075133;28;19988;-76
2023/12/30 09:28:58;;;;;;;;;;;6.60;99.90;;;;;;5074948;28;20364;-76
2023/12/30 09:31:25;;;;;;;;;;;6.60;99.90;;;;;;5057807;28;19904;-76
2023/12/30 09:33:51;;;;;;;;;;;6.50;99.90;;;;;;5075967;28;19916;-76
2023/12/30 09:36:17;;;;;;;;;;;6.40;99.90;;;;;;5057843;28;19914;-77
2023/12/30 09:38:43;;;;;;;;;;;6.40;99.90;;;;;;5058617;28;19913;-76
2023/12/30 09:41:08;;;;;;;;;;;6.30;99.90;;;;;;5076650;28;20410;-76
2023/12/30 09:43:34;;;;;;;;;;;6.20;99.90;;;;;;5058365;28;19904;-76
2023/12/30 09:46:00;;;;;;;;;;;6.20;99.90;;;;;;5058413;28;19908;-76
2023/12/30 09:48:26;;;;;;;;;;;6.30;99.90;;;;;;5075934;28;19955;-77
2023/12/30 09:50:52;;;;;;;;;;;6.40;99.90;;;;;;5058817;28;19978;-77
2023/12/30 09:53:17;;;;;;;;;;;6.50;99.90;;;;;;5057888;28;19912;-77
2023/12/30 09:55:44;;;;;;;;;;;6.60;99.90;;;;;;5076876;28;19912;-77
2023/12/30 09:58:10;;;;;;;;;;;6.90;99.90;;;;;;5058709;28;19912;-76
2023/12/30 10:00:39;;;;;;;;;;;7.00;99.90;;;;;;5058306;28;19940;-76
2023/12/30 10:03:05;;;;;;;;;;;7.10;99.90;;;;;;5057998;28;19908;-76
2023/12/30 10:05:30;;;;;;;;;;;7.30;99.90;;;;;;5058595;28;19911;-76
2023/12/30 10:07:57;;;;;;;;;;;7.40;99.90;;;;;;5076337;28;20427;-76
2023/12/30 10:10:35;;;;;;;;;;;7.50;99.90;;;;;;5076827;28;20364;-76
2023/12/30 10:13:00;;;;;;;;;;;7.60;99.90;;;;;;5058568;28;19916;-77
2023/12/30 10:15:26;;;;;;;;;;;7.70;99.90;;;;;;5077486;28;20295;-76
2023/12/30 10:17:51;;;;;;;;;;;7.80;99.90;;;;;;5058680;28;19920;-76
2023/12/30 10:20:23;;;;;;;;;;;7.90;99.90;;;;;;5077038;28;19908;-76
2023/12/30 10:22:48;;;;;;;;;;;8.00;99.90;;;;;;5077493;28;19915;-77
2023/12/30 10:25:14;;;;;;;;;;;8.10;99.90;;;;;;5060489;28;19904;-77
2023/12/30 10:27:40;;;;;;;;;;;8.10;99.90;;;;;;5059738;28;20510;-77
2023/12/30 10:30:08;;;;;;;;;;;8.20;99.90;;;;;;5058560;28;20376;-75
2023/12/30 10:32:33;;;;;;;;;;;8.40;99.90;;;;;;5077579;28;19914;-77
2023/12/30 10:34:59;;;;;;;;;;;8.70;99.90;;;;;;5077414;28;19916;-75
2023/12/30 10:37:24;;;;;;;;;;;8.80;99.90;;;;;;5076492;28;19916;-75
2023/12/30 10:39:51;;;;;;;;;;;9.00;99.90;;;;;;5059111;28;19905;-76
2023/12/30 10:42:17;;;;;;;;;;;9.30;99.90;;;;;;5058992;28;19927;-76
2023/12/30 10:44:42;;;;;;;;;;;9.30;99.90;;;;;;5058586;28;19908;-76
2023/12/30 10:47:10;;;;;;;;;;;9.40;99.90;;;;;;5059777;28;19995;-76
2023/12/30 10:49:37;;;;;;;;;;;9.50;99.90;;;;;;5060417;28;19916;-76
2023/12/30 10:52:04;;;;;;;;;;;9.60;99.90;;;;;;5077737;28;19905;-76
2023/12/30 10:54:34;;;;;;;;;;;9.70;99.90;;;;;;5057242;28;20391;-76
2023/12/30 10:57:05;;;;;;;;;;;9.70;99.90;;;;;;5057257;28;19930;-76
2023/12/30 10:59:31;;;;;;;;;;;9.80;99.90;;;;;;5074904;28;20005;-76
2023/12/30 11:01:57;;;;;;;;;;;9.90;99.90;;;;;;5075307;28;20357;-76
2023/12/30 11:04:25;;;;;;;;;;;10.00;99.90;;;;;;5056514;28;19981;-76
2023/12/30 11:06:56;;;;;;;;;;;10.00;99.90;;;;;;5074844;28;19911;-76
2023/12/30 11:09:27;;;;;;;;;;;10.10;99.90;;;;;;5073252;28;19950;-77
2023/12/30 11:11:53;;;;;;;;;;;10.10;99.90;;;;;;5055635;28;19943;-76
2023/12/30 11:14:19;;;;;;;;;;;10.10;99.90;;;;;;5072891;28;19914;-76
2023/12/30 11:16:45;;;;;;;;;;;10.10;99.90;;;;;;5072517;28;19909;-76
2023/12/30 11:19:23;;;;;;;;;;;10.20;99.90;;;;;;5073380;28;19912;-76
2023/12/30 11:21:49;;;;;;;;;;;10.10;99.90;;;;;;5055321;28;19911;-76
2023/12/30 11:24:15;;;;;;;;;;;10.10;99.90;;;;;;5055736;28;19908;-77
2023/12/30 11:26:41;;;;;;;;;;;10.10;99.90;;;;;;5055098;28;20490;-77
2023/12/30 11:29:11;;;;;;;;;;;10.10;99.90;;;;;;5055721;28;19905;-76
2023/12/30 11:31:37;;;;;;;;;;;10.10;99.90;;;;;;5072880;28;19912;-76
2023/12/30 11:34:04;;;;;;;;;;;10.10;99.90;;;;;;5054862;28;20288;-76
2023/12/30 11:36:30;;;;;;;;;;;10.10;99.90;;;;;;5073971;28;19948;-76
2023/12/30 11:38:57;;;;;;;;;;;10.00;99.90;;;;;;5056790;28;19916;-77
2023/12/30 11:41:29;;;;;;;;;;;10.00;99.90;;;;;;5057568;28;19944;-76
2023/12/30 11:43:55;;;;;;;;;;;9.90;99.90;;;;;;5057231;28;19911;-77
2023/12/30 11:46:20;;;;;;;;;;;9.90;99.90;;;;;;5056605;28;19909;-77
2023/12/30 11:48:46;;;;;;;;;;;9.90;99.90;;;;;;5057278;28;19962;-76
2023/12/30 11:51:21;;;;;;;;;;;9.90;99.90;;;;;;5075556;28;19904;-77
2023/12/30 11:53:47;;;;;;;;;;;9.90;99.90;;;;;;5057924;28;19914;-77
2023/12/30 11:56:12;;;;;;;;;;;9.80;99.90;;;;;;5075211;28;19905;-77
2023/12/30 11:58:38;;;;;;;;;;;9.80;99.90;;;;;;5075358;28;19962;-77
2023/12/30 12:01:03;;;;;;;;;;;9.80;99.90;;;;;;5075591;28;19904;-76
2023/12/30 12:03:29;;;;;;;;;;;9.70;99.90;;;;;;5057013;28;19908;-77
2023/12/30 12:05:54;;;;;;;;;;;9.70;99.90;;;;;;5057417;28;20009;-77
2023/12/30 12:08:20;;;;;;;;;;;9.70;99.90;;;;;;5058296;28;19993;-76
2023/12/30 12:10:46;;;;;;;;;;;9.60;99.90;;;;;;5059016;28;19908;-77
2023/12/30 12:13:20;;;;;;;;;;;9.60;99.90;;;;;;5077408;28;20389;-77
2023/12/30 12:15:47;;;;;;;;;;;9.60;99.90;;;;;;5057813;28;19916;-77
2023/12/30 12:18:13;;;;;;;;;;;9.60;99.90;;;;;;5056791;28;19912;-76
2023/12/30 12:20:40;;;;;;;;;;;9.60;99.90;;;;;;5057206;28;19915;-76
2023/12/30 12:23:06;;;;;;;;;;;9.50;99.90;;;;;;5055909;28;19909;-77
2023/12/30 12:25:32;;;;;;;;;;;9.40;99.90;;;;;;5074196;28;19966;-77
2023/12/30 12:27:58;;;;;;;;;;;9.40;99.90;;;;;;5055061;28;20369;-75
2023/12/30 12:30:23;;;;;;;;;;;9.30;99.90;;;;;;5060380;28;19954;-77
2023/12/30 12:32:49;;;;;;;;;;;9.30;99.90;;;;;;5059413;28;19967;-76
2023/12/30 12:35:14;;;;;;;;;;;9.30;99.90;;;;;;5079162;28;19919;-76
2023/12/30 12:37:40;;;;;;;;;;;9.20;99.90;;;;;;5060856;28;20372;-76
2023/12/30 12:40:10;;;;;;;;;;;9.20;99.90;;;;;;5078062;28;19943;-77
2023/12/30 12:42:36;;;;;;;;;;;9.10;99.90;;;;;;5060316;28;20674;-76
2023/12/30 12:45:01;;;;;;;;;;;9.10;99.90;;;;;;5078929;28;19904;-76
2023/12/30 12:47:27;;;;;;;;;;;9.10;99.90;;;;;;5060729;28;19908;-76
2023/12/30 12:49:53;;;;;;;;;;;9.00;99.90;;;;;;5077798;28;19904;-75
2023/12/30 12:52:18;;;;;;;;;;;9.00;99.90;;;;;;5060484;28;19909;-74
2023/12/30 12:54:44;;;;;;;;;;;9.00;99.90;;;;;;5061506;28;19951;-74
2023/12/30 12:57:10;;;;;;;;;;;9.00;99.90;;;;;;5058995;28;20408;-74
2023/12/30 12:59:35;;;;;;;;;;;8.90;99.90;;;;;;5059732;28;19909;-76
2023/12/30 13:02:00;;;;;;;;;;;8.90;99.90;;;;;;5078439;28;19926;-76
2023/12/30 13:04:26;;;;;;;;;;;8.90;99.90;;;;;;5059321;28;20371;-76
2023/12/30 13:06:52;;;;;;;;;;;8.90;99.90;;;;;;5077120;28;19904;-76
2023/12/30 13:11:59;;;;;;;;;;;8.90;99.90;;;;;;5076788;28;19909;-76
2023/12/30 13:14:27;;;;;;;;;;;8.90;99.90;;;;;;5059041;28;19951;-76
2023/12/30 13:16:56;;;;;;;;;;;8.80;99.90;;;;;;5058287;28;19915;-76
2023/12/30 13:19:21;;;;;;;;;;;8.80;99.90;;;;;;5077037;28;19919;-75
2023/12/30 13:21:49;;;;;;;;;;;8.70;99.90;;;;;;5077433;28;19904;-76
2023/12/30 13:24:14;;;;;;;;;;;8.70;99.90;;;;;;5076115;28;19904;-77
2023/12/30 13:26:40;;;;;;;;;;;8.60;99.90;;;;;;5057965;28;19915;-76
2023/12/30 13:29:06;;;;;;;;;;;8.60;99.90;;;;;;5058333;28;20304;-76
2023/12/30 13:31:34;;;;;;;;;;;8.60;99.90;;;;;;5076537;28;19908;-77
2023/12/30 13:34:00;;;;;;;;;;;8.60;99.90;;;;;;5057983;28;19923;-77
2023/12/30 13:36:25;;;;;;;;;;;8.60;99.90;;;;;;5057903;28;20011;-76
2023/12/30 13:39:03;;;;;;;;;;;8.50;99.90;;;;;;5076612;28;19916;-75
2023/12/30 13:41:29;;;;;;;;;;;8.50;99.90;;;;;;5058953;28;20332;-75
2023/12/30 13:43:55;;;;;;;;;;;8.50;99.90;;;;;;5058645;28;19999;-76
2023/12/30 13:51:37;;;;;;;;;;;8.40;99.90;;;;;;5076698;28;19951;-76
2023/12/30 13:54:03;;;;;;;;;;;8.40;99.90;;;;;;5076780;28;19912;-76
2023/12/30 13:56:32;;;;;;;;;;;8.30;99.90;;;;;;5045327;28;19904;-76
2023/12/30 13:58:57;;;;;;;;;;;8.40;99.90;;;;;;5055352;28;19924;-76
2023/12/30 14:01:24;;;;;;;;;;;8.40;99.90;;;;;;5038018;28;19905;-77
2023/12/30 14:03:55;;;;;;;;;;;8.40;99.90;;;;;;5051150;28;20388;-76
2023/12/30 14:06:28;;;;;;;;;;;8.30;99.90;;;;;;5034848;28;20293;-74
2023/12/30 14:08:53;;;;;;;;;;;8.30;99.90;;;;;;5037213;28;19911;-76
2023/12/30 14:11:33;;;;;;;;;;;8.30;99.90;;;;;;5053744;28;20359;-76